Strona główna
METAR-TAF:

METAR-TAF

Lotnisko :

Chester, Connecticut, Stany Zjednoczone

Szerokość geograficzna: 41-23-02N, Długość geograficzna: 072-30-21W, wysokość: 127 m

Aktualna obserwacja pogody

Raport powstał 21 minut temu, godzina 09:35 UTC
Wiatr 5 kt od północno-północny zachód
Temperatura -10°C
Wilgotność 61%
Ciśnienie 1027 hPa
Widzialność: 16.1 km
bezchmurnie

METAR: KSNC 210935Z AUTO 33005KT 10SM CLR M10/M16 A3034 RMK AO2

czas: 04:56 (09:56 UTC)


TAF: brakujący

Obserwacja i prognoza pogody dla ponad 4000 lotnisk (raport METAR i TAF).

Dostępne stacje oznaczono żółtymi i czerwonymi punktami na mapie.

Najedź kursorem aby zobaczyć nazwę stacji.

Kliknij aby zobaczyć obserwacje i prognozy pogody.

Aby zmienić mapę: kliknij na zielony przycisk z czarnym krzyżykiem, aby powiększyć; na zielony przycisk z myślnikiem, aby pomniejszyć; na zielone strzałki, aby przejść do map sąsiednich.


METAR-TAF: